Time;durP1;ratioP1;P1;durP2;ratioP2;P2;SDS_P1;SDS_P2;PMS_P1;PMS_P2;Temp;Humidity;BMP_temperature;BMP_pressure;BME280_temperature;BME280_humidity;BME280_pressure;Samples;Min_cycle;Max_cycle;Signal;HPM_P1;HPM_P2
2022/12/09 07:56:57;;;;;;;11.48;10.59;;;;;;;2.17;90.14;101483.89;517610;101;947150;-79
2022/12/09 07:58:01;;;;;;;12.47;11.25;;;;;;;2.12;89.67;101475.39;502041;105;922545;-78
2022/12/09 07:59:06;;;;;;;11.64;10.63;;;;;;;2.18;89.44;101472.14;499581;105;922571;-80
2022/12/09 08:00:10;;;;;;;12.48;11.42;;;;;;;2.23;89.15;101477.95;503524;105;922591;-76
2022/12/09 08:01:19;;;;;;;11.73;10.78;;;;;;;2.28;89.04;101476.55;503436;105;922577;-78
2022/12/09 08:02:22;;;;;;;12.76;11.57;;;;;;;2.32;88.91;101477.11;503497;105;922693;-77
2022/12/09 08:03:26;;;;;;;12.41;11.34;;;;;;;2.37;88.82;101473.01;498718;104;922834;-78
2022/12/09 08:04:30;;;;;;;12.19;11.17;;;;;;;2.43;88.68;101471.59;494014;107;930313;-79
2022/12/09 08:05:34;;;;;;;11.18;10.12;;;;;;;2.46;88.57;101472.19;494105;107;922549;-78
2022/12/09 08:06:38;;;;;;;11.45;10.54;;;;;;;2.51;88.48;101477.14;494142;107;922463;-79
2022/12/09 08:07:41;;;;;;;11.46;10.37;;;;;;;2.55;88.40;101473.17;494487;105;922403;-78
2022/12/09 08:08:47;;;;;;;11.70;10.62;;;;;;;2.60;88.48;101467.36;503490;105;922356;-79
2022/12/09 08:09:53;;;;;;;11.05;10.19;;;;;;;2.64;88.42;101469.65;503560;105;923033;-79
2022/12/09 08:11:08;;;;;;;10.58;9.62;;;;;;;2.69;88.21;101456.61;503432;105;922415;-79
2022/12/09 08:12:12;;;;;;;11.24;10.31;;;;;;;2.73;88.13;101458.02;503476;105;923298;-78
2022/12/09 08:13:16;;;;;;;10.72;9.86;;;;;;;2.80;88.00;101453.77;502601;105;923297;-79
2022/12/09 08:14:19;;;;;;;11.07;10.07;;;;;;;2.84;88.00;101451.63;503593;105;922616;-78
2022/12/09 08:15:23;;;;;;;10.48;9.51;;;;;;;2.88;87.71;101451.19;503613;105;922538;-79
2022/12/09 08:16:26;;;;;;;10.46;9.36;;;;;;;2.91;87.60;101444.67;503574;105;922666;-78
2022/12/09 08:17:31;;;;;;;10.45;9.51;;;;;;;2.94;87.64;101445.22;503587;105;930472;-78
2022/12/09 08:18:36;;;;;;;10.46;9.55;;;;;;;2.98;87.44;101437.69;496530;104;922300;-78
2022/12/09 08:19:39;;;;;;;9.98;9.13;;;;;;;3.02;87.38;101433.73;494053;107;930416;-78
2022/12/09 08:20:43;;;;;;;9.66;8.85;;;;;;;3.07;87.53;101431.45;494118;107;930360;-79
2022/12/09 08:21:47;;;;;;;10.09;9.28;;;;;;;3.13;87.49;101435.41;494091;107;922407;-78
2022/12/09 08:22:52;;;;;;;9.08;8.32;;;;;;;3.17;87.38;101434.97;494662;105;922568;-80
2022/12/09 08:23:58;;;;;;;9.13;8.31;;;;;;;3.22;87.13;101432.68;494167;107;922808;-79
2022/12/09 08:25:01;;;;;;;9.83;8.91;;;;;;;3.26;87.03;101427.84;502985;105;930387;-79
2022/12/09 08:26:06;;;;;;;10.05;9.23;;;;;;;3.30;86.98;101431.95;503663;104;922395;-78
2022/12/09 08:27:09;;;;;;;10.59;9.41;;;;;;;3.34;86.79;101427.97;503660;104;922798;-79
2022/12/09 08:28:13;;;;;;;9.53;8.74;;;;;;;3.38;86.58;101423.11;500205;104;922396;-79
2022/12/09 08:29:16;;;;;;;9.59;8.81;;;;;;;3.42;86.47;101425.36;494045;107;930506;-81
2022/12/09 08:30:20;;;;;;;13.25;9.53;;;;;;;3.45;86.29;101429.63;494090;107;922516;-80
2022/12/09 08:31:26;;;;;;;9.33;8.59;;;;;;;3.48;86.16;101432.86;493993;107;922534;-79
2022/12/09 08:32:29;;;;;;;10.38;8.45;;;;;;;3.50;86.07;101425.48;493815;107;930446;-80
2022/12/09 08:33:33;;;;;;;10.39;9.31;;;;;;;3.53;86.04;101430.56;492836;105;922506;-78
2022/12/09 08:34:37;;;;;;;9.66;8.85;;;;;;;3.57;85.96;101434.69;491636;107;922525;-77
2022/12/09 08:35:40;;;;;;;9.79;8.95;;;;;;;3.60;85.86;101426.28;491585;108;922873;-78
2022/12/09 08:36:44;;;;;;;9.38;8.58;;;;;;;3.64;85.93;101429.52;491551;108;922625;-79
2022/12/09 08:37:47;;;;;;;9.48;8.63;;;;;;;3.68;85.95;101428.25;491651;105;930511;-80
2022/12/09 08:38:51;;;;;;;9.91;8.95;;;;;;;3.71;85.80;101428.78;494544;105;922539;-79
2022/12/09 08:39:55;;;;;;;10.48;9.38;;;;;;;3.76;85.72;101422.94;494044;107;922972;-79
2022/12/09 08:41:00;;;;;;;10.32;9.39;;;;;;;3.81;85.73;101423.33;494071;107;922463;-79
2022/12/09 08:42:04;;;;;;;10.43;9.22;;;;;;;3.84;85.55;101420.34;494121;106;930567;-79
2022/12/09 08:43:08;;;;;;;10.08;9.10;;;;;;;3.88;85.57;101421.73;493624;105;922539;-78
2022/12/09 08:44:16;;;;;;;11.00;9.92;;;;;;;3.91;85.34;101417.91;491652;108;922941;-78
2022/12/09 08:45:20;;;;;;;10.64;9.74;;;;;;;3.93;85.16;101416.73;491572;108;922573;-79
2022/12/09 08:46:24;;;;;;;10.91;9.99;;;;;;;3.96;85.21;101416.45;491670;107;922434;-78
2022/12/09 08:47:28;;;;;;;11.01;10.00;;;;;;;4.00;85.08;101412.44;491718;108;922763;-77
2022/12/09 08:48:34;;;;;;;10.50;9.16;;;;;;;4.02;84.94;101406.89;494366;105;922681;-78
2022/12/09 08:49:38;;;;;;;9.72;8.88;;;;;;;4.04;84.92;101408.42;483512;109;922485;-79
2022/12/09 08:50:42;;;;;;;10.44;9.55;;;;;;;4.06;84.73;101410.98;483599;109;922481;-77
2022/12/09 08:51:50;;;;;;;8.77;8.07;;;;;;;4.08;84.79;101409.81;483568;109;923037;-80
2022/12/09 08:52:54;;;;;;;9.98;8.42;;;;;;;4.11;84.60;101408.67;482787;108;922928;-80
2022/12/09 08:53:59;;;;;;;8.97;8.23;;;;;;;4.13;84.51;101403.98;503689;105;923460;-78
2022/12/09 08:55:03;;;;;;;10.13;9.21;;;;;;;4.15;84.46;101393.86;503427;105;930495;-79
2022/12/09 08:56:10;;;;;;;8.76;8.02;;;;;;;4.16;84.20;101398.26;503518;104;922894;-79
2022/12/09 08:57:14;;;;;;;9.10;8.14;;;;;;;4.16;84.11;101400.96;502646;105;922411;-78
2022/12/09 08:58:18;;;;;;;8.84;7.99;;;;;;;4.16;83.93;101396.41;498948;105;922850;-79
2022/12/09 08:59:21;;;;;;;8.69;7.99;;;;;;;4.17;83.87;101394.56;493181;107;930438;-79
2022/12/09 09:00:25;;;;;;;8.67;7.94;;;;;;;4.19;83.92;101397.94;493173;107;923006;-78
2022/12/09 09:01:33;;;;;;;9.62;8.78;;;;;;;4.20;83.85;101396.94;493226;107;922640;-78
2022/12/09 09:02:37;;;;;;;9.68;8.75;;;;;;;4.23;83.79;101396.66;493068;107;922505;-79
2022/12/09 09:03:41;;;;;;;9.43;8.69;;;;;;;4.25;83.77;101388.38;500430;105;922874;-78
2022/12/09 09:04:45;;;;;;;8.36;7.64;;;;;;;4.26;83.54;101390.93;502610;105;922918;-78
2022/12/09 09:05:49;;;;;;;9.30;8.44;;;;;;;4.27;83.61;101386.38;502454;105;930456;-79
2022/12/09 09:06:52;;;;;;;9.21;8.19;;;;;;;4.28;83.48;101388.09;502577;105;922812;-79
2022/12/09 09:07:57;;;;;;;8.99;8.17;;;;;;;4.30;83.21;101384.22;501039;105;922460;-79
2022/12/09 09:09:01;;;;;;;9.79;8.72;;;;;;;4.31;83.17;101385.06;490649;108;930526;-78
2022/12/09 09:10:20;;;;;;;8.57;7.70;;;;;;;4.31;82.95;101390.46;490645;108;922496;-78
2022/12/09 09:11:25;;;;;;;9.31;8.60;;;;;;;4.32;82.80;101381.37;490743;108;922848;-77
2022/12/09 09:12:29;;;;;;;9.02;8.18;;;;;;;4.32;82.69;101382.22;490708;108;922529;-79
2022/12/09 09:13:33;;;;;;;9.59;8.82;;;;;;;4.32;82.58;101382.22;491430;105;922531;-77
2022/12/09 09:14:36;;;;;;;9.82;8.99;;;;;;;4.32;82.41;101379.52;490778;108;922421;-78
2022/12/09 09:15:40;;;;;;;10.24;9.40;;;;;;;4.33;82.43;101383.92;490748;108;922508;-79
2022/12/09 09:16:44;;;;;;;9.27;8.44;;;;;;;4.33;82.28;101370.42;490656;108;930565;-79
2022/12/09 09:17:52;;;;;;;11.74;9.16;;;;;;;4.33;82.03;101374.97;490785;105;922445;-78
2022/12/09 09:18:56;;;;;;;9.32;8.56;;;;;;;4.32;81.90;101375.97;492985;107;923074;-81
2022/12/09 09:20:00;;;;;;;10.17;9.25;;;;;;;4.31;81.77;101375.12;493077;107;922512;-78
2022/12/09 09:21:22;;;;;;;11.16;8.34;;;;;;;4.31;81.74;101380.52;492893;107;922895;-78
2022/12/09 09:22:26;;;;;;;10.16;9.21;;;;;;;4.30;81.73;101381.52;492901;107;922984;-79
2022/12/09 09:23:29;;;;;;;10.04;9.17;;;;;;;4.32;81.83;101375.97;491927;105;922845;-78
2022/12/09 09:24:33;;;;;;;10.54;9.05;;;;;;;4.32;81.82;101376.82;490736;108;922511;-81
2022/12/09 09:25:41;;;;;;;10.36;9.46;;;;;;;4.33;81.59;101381.22;490679;108;930479;-78
2022/12/09 09:26:48;;;;;;;9.87;8.97;;;;;;;4.33;81.40;101375.82;490489;108;930446;-77
2022/12/09 09:27:52;;;;;;;10.49;9.58;;;;;;;4.34;81.25;101384.77;491128;105;922452;-78
2022/12/09 09:28:55;;;;;;;11.08;9.66;;;;;;;4.31;81.23;101374.27;493082;107;922469;-78
2022/12/09 09:29:59;;;;;;;9.31;8.43;;;;;;;4.31;81.02;101372.42;493017;107;930467;-78
2022/12/09 09:31:04;;;;;;;10.40;9.36;;;;;;;4.29;81.06;101371.74;492976;107;930478;-79
2022/12/09 09:32:08;;;;;;;9.66;8.75;;;;;;;4.28;81.01;101364.64;492918;107;923069;-78
2022/12/09 09:33:11;;;;;;;10.03;9.15;;;;;;;4.28;80.76;101378.14;492690;105;922540;-78
2022/12/09 09:34:19;;;;;;;9.38;8.54;;;;;;;4.26;80.61;101373.88;490686;108;930452;-78
2022/12/09 09:35:23;;;;;;;8.79;7.88;;;;;;;4.24;80.50;101371.36;490628;108;922517;-79
2022/12/09 09:36:26;;;;;;;9.84;8.94;;;;;;;4.23;80.43;101369.66;490656;108;922713;-77
2022/12/09 09:37:30;;;;;;;9.54;8.78;;;;;;;4.22;80.47;101367.11;490704;108;922780;-78
2022/12/09 09:38:34;;;;;;;9.69;8.85;;;;;;;4.21;80.25;101366.25;493323;105;930449;-78
2022/12/09 09:39:39;;;;;;;9.59;8.77;;;;;;;4.20;80.16;101370.80;493044;107;923390;-80
2022/12/09 09:40:42;;;;;;;9.37;8.55;;;;;;;4.20;80.14;101369.95;493009;107;922668;-79
2022/12/09 09:41:49;;;;;;;9.92;9.12;;;;;;;4.20;79.93;101375.34;493024;107;922848;-78
2022/12/09 09:42:56;;;;;;;11.02;9.98;;;;;;;4.20;79.82;101375.34;493351;105;922972;-78
2022/12/09 09:44:01;;;;;;;10.78;9.73;;;;;;;4.20;79.85;101378.05;492945;107;923251;-78
2022/12/09 09:45:08;;;;;;;10.88;9.83;;;;;;;4.20;79.91;101364.55;492995;107;922575;-78
2022/12/09 09:46:15;;;;;;;11.23;10.30;;;;;;;4.20;79.70;101364.55;493028;107;922520;-77
2022/12/09 09:47:38;;;;;;;10.74;9.72;;;;;;;4.22;79.65;101364.41;492958;107;922930;-78
2022/12/09 09:48:42;;;;;;;10.80;9.80;;;;;;;4.23;79.58;101360.71;493777;105;922477;-79
2022/12/09 09:49:58;;;;;;;12.18;11.11;;;;;;;4.23;79.46;101366.11;493067;107;922927;-78
2022/12/09 09:51:05;;;;;;;11.98;10.81;;;;;;;4.23;79.37;101363.41;492879;107;922518;-78
2022/12/09 09:52:15;;;;;;;10.76;9.82;;;;;;;4.23;79.35;101369.66;492926;107;922493;-82
2022/12/09 09:53:31;;;;;;;10.97;9.77;;;;;;;4.33;79.30;101367.72;472296;110;947191;-79
2022/12/09 09:54:36;;;;;;;9.70;8.84;;;;;;;4.23;79.37;101366.96;457713;116;922865;-78
2022/12/09 09:55:43;;;;;;;10.08;9.20;;;;;;;4.24;79.29;101363.27;457516;116;922508;-78
2022/12/09 09:57:02;;;;;;;9.81;8.96;;;;;;;4.25;79.25;101366.78;463448;114;922653;-79
2022/12/09 09:58:18;;;;;;;11.97;9.68;;;;;;;4.25;79.13;101359.53;465054;112;922540;-79
2022/12/09 09:59:48;;;;;;;9.84;8.67;;;;;;;4.26;79.07;101354.98;455355;116;922906;-78
2022/12/09 10:01:07;;;;;;;10.16;9.09;;;;;;;4.27;78.99;101359.39;449905;118;922916;-77
2022/12/09 10:02:24;;;;;;;10.81;9.56;;;;;;;4.25;79.04;101362.23;447232;118;923540;-78
2022/12/09 10:03:42;;;;;;;11.46;8.89;;;;;;;4.23;78.81;101364.27;451448;116;922720;-78
2022/12/09 10:04:59;;;;;;;9.51;8.58;;;;;;;4.22;78.98;101359.01;449922;118;922838;-78
2022/12/09 13:12:54;;;;;;;16.71;15.27;;;;;;;2.30;82.80;101293.45;474642;112;933274;-80
2022/12/09 13:14:12;;;;;;;15.85;14.52;;;;;;;2.27;82.43;101299.09;474089;112;922418;-78
2022/12/09 13:15:18;;;;;;;15.61;14.32;;;;;;;2.36;82.34;101303.64;475547;111;922704;-78
2022/12/09 13:16:37;;;;;;;15.33;14.22;;;;;;;2.40;82.11;101291.58;475440;111;922899;-80
2022/12/09 13:17:43;;;;;;;17.40;15.42;;;;;;;2.45;82.11;101298.23;475290;111;922482;-78
2022/12/09 13:18:48;;;;;;;15.37;14.06;;;;;;;2.50;82.07;101295.94;475285;111;922351;-78
2022/12/09 13:19:54;;;;;;;14.76;13.54;;;;;;;2.54;81.99;101298.36;475334;111;922585;-78
2022/12/09 13:20:59;;;;;;;16.03;14.78;;;;;;;2.58;82.02;101289.84;475336;111;922993;-77
2022/12/09 13:22:03;;;;;;;15.31;13.96;;;;;;;2.62;81.84;101293.93;475272;111;922522;-77
2022/12/09 13:23:13;;;;;;;15.83;14.56;;;;;;;2.65;81.86;101292.77;475332;111;922763;-78
2022/12/09 13:24:32;;;;;;;14.94;13.48;;;;;;;2.68;81.98;101293.35;475152;111;922575;-78
2022/12/09 13:25:41;;;;;;;13.87;12.67;;;;;;;2.72;81.83;101289.36;474417;111;922450;-77
2022/12/09 13:27:08;;;;;;;12.91;11.81;;;;;;;2.88;81.94;101288.73;481527;110;947129;-77
2022/12/09 13:28:30;;;;;;;11.93;10.96;;;;;;;2.79;81.72;101293.17;465552;114;922434;-80
2022/12/09 13:29:49;;;;;;;13.13;11.85;;;;;;;2.81;81.67;101288.47;465092;114;922490;-79
2022/12/09 13:30:58;;;;;;;11.83;10.86;;;;;;;2.83;81.49;101289.18;464928;114;922928;-78
2022/12/09 13:32:08;;;;;;;11.98;10.86;;;;;;;2.83;81.40;101283.80;465534;113;922483;-80
2022/12/09 13:33:36;;;;;;;12.22;11.03;;;;;;;2.85;81.37;101279.12;464482;114;922489;-79
2022/12/09 13:34:48;;;;;;;11.68;10.56;;;;;;;2.87;81.31;101279.80;465504;114;922918;-79
2022/12/09 13:35:57;;;;;;;12.42;10.80;;;;;;;2.88;81.10;101276.12;465536;114;922556;-79
2022/12/09 13:37:00;;;;;;;12.37;11.34;;;;;;;2.88;81.10;101278.81;465199;114;922547;-78
2022/12/09 13:38:03;;;;;;;11.80;10.78;;;;;;;2.87;80.98;101274.41;465711;114;922916;-79
2022/12/09 13:39:11;;;;;;;10.99;10.09;;;;;;;2.87;80.76;101277.11;465690;114;922566;-78
2022/12/09 13:40:24;;;;;;;12.28;11.19;;;;;;;2.87;80.72;101282.49;465518;114;922538;-79
2022/12/09 13:42:51;;;;;;;11.60;10.63;;;;;;;2.88;80.59;101277.95;465480;114;922631;-79
2022/12/09 13:42:57;;;;;;;12.02;10.91;;;;;;;2.88;80.50;101277.95;462568;114;922749;-78
2022/12/09 13:44:12;;;;;;;12.06;10.98;;;;;;;2.86;80.40;101278.13;465515;114;922611;-79
2022/12/09 13:45:28;;;;;;;12.44;11.41;;;;;;;2.85;80.37;101278.27;465525;114;922614;-78
2022/12/09 13:46:32;;;;;;;13.06;11.93;;;;;;;2.85;80.48;101268.34;465374;114;923050;-79
2022/12/09 13:47:35;;;;;;;11.98;10.92;;;;;;;2.84;80.26;101263.95;465606;113;922857;-78
2022/12/09 13:48:43;;;;;;;12.81;11.59;;;;;;;2.84;80.11;101266.64;465627;114;922500;-79
2022/12/09 13:49:55;;;;;;;11.94;10.94;;;;;;;2.83;80.05;101267.63;465219;114;922851;-78
2022/12/09 13:50:59;;;;;;;12.75;11.44;;;;;;;2.82;80.07;101268.63;465498;114;922622;-79
2022/12/09 13:52:02;;;;;;;13.88;12.56;;;;;;;2.81;80.02;101266.92;465583;114;922538;-78
2022/12/09 13:53:21;;;;;;;12.29;11.21;;;;;;;2.80;79.98;101273.33;465595;114;930248;-78
2022/12/09 13:54:27;;;;;;;13.19;11.98;;;;;;;2.81;79.80;101271.49;456529;116;923519;-78
2022/12/09 13:55:36;;;;;;;14.54;13.36;;;;;;;2.80;79.75;101267.95;465474;114;922502;-78
2022/12/09 13:56:40;;;;;;;14.46;13.07;;;;;;;2.80;79.75;101275.17;465496;114;922507;-78
2022/12/09 13:57:47;;;;;;;14.34;13.09;;;;;;;2.80;79.71;101269.78;465591;113;922478;-79
2022/12/09 13:59:22;;;;;;;15.19;13.79;;;;;;;2.79;79.68;101274.32;459998;114;922471;-79
2022/12/09 14:00:26;;;;;;;15.86;14.45;;;;;;;2.77;79.50;101279.00;457441;116;922647;-78
2022/12/09 14:01:44;;;;;;;16.18;14.59;;;;;;;2.77;79.45;101275.45;448935;118;922539;-78
2022/12/09 14:02:54;;;;;;;15.16;13.79;;;;;;;2.75;79.40;101261.31;457378;116;930526;-77
2022/12/09 14:04:04;;;;;;;16.87;15.22;;;;;;;2.75;79.38;101272.92;440083;120;922483;-78
2022/12/09 14:05:14;;;;;;;17.36;15.61;;;;;;;2.73;79.35;101274.91;455937;116;922963;-79
2022/12/09 14:06:29;;;;;;;16.39;14.83;;;;;;;2.72;79.24;101267.82;457378;116;922441;-78
2022/12/09 14:07:51;;;;;;;17.50;15.92;;;;;;;2.71;79.27;101266.12;457380;116;922670;-78
2022/12/09 14:08:58;;;;;;;18.33;15.44;;;;;;;2.71;79.22;101268.81;448869;118;922591;-79
2022/12/09 14:10:02;;;;;;;16.12;14.72;;;;;;;2.70;79.18;101268.98;457436;116;922624;-77
2022/12/09 14:11:32;;;;;;;16.02;14.55;;;;;;;2.68;79.32;101269.12;457475;116;923045;-79
2022/12/09 14:12:41;;;;;;;16.17;14.55;;;;;;;2.68;79.25;101266.43;446972;118;930326;-79
2022/12/09 14:13:47;;;;;;;16.83;15.08;;;;;;;2.65;79.08;101261.31;441202;120;923041;-78
2022/12/09 14:15:15;;;;;;;17.42;15.59;;;;;;;2.64;79.05;101259.65;448354;116;923562;-78
2022/12/09 14:16:31;;;;;;;21.27;17.31;;;;;;;2.63;79.00;101259.78;457385;116;922549;-77
2022/12/09 14:17:38;;;;;;;24.62;17.78;;;;;;;2.61;79.08;101265.31;457395;116;922632;-78
2022/12/09 14:18:43;;;;;;;20.02;16.02;;;;;;;2.58;78.87;101270.15;447342;116;922596;-77
2022/12/09 14:19:55;;;;;;;17.92;16.05;;;;;;;2.56;78.78;101266.74;457441;116;922481;-77
2022/12/09 14:21:21;;;;;;;21.65;15.70;;;;;;;2.53;78.79;101259.83;457377;116;931003;-77
2022/12/09 14:22:27;;;;;;;16.62;14.27;;;;;;;2.52;78.83;101266.20;457423;116;923641;-77
2022/12/09 14:23:31;;;;;;;15.45;13.96;;;;;;;2.51;79.00;101261.80;457431;116;922557;-78
2022/12/09 14:24:35;;;;;;;14.80;13.19;;;;;;;2.48;78.88;101262.93;457543;116;922443;-78
2022/12/09 14:25:44;;;;;;;13.96;12.55;;;;;;;2.46;78.70;101256.87;448904;118;930384;-78
2022/12/09 14:26:59;;;;;;;15.41;13.75;;;;;;;2.46;78.67;101254.17;445860;118;922927;-78
2022/12/09 14:28:12;;;;;;;13.68;12.47;;;;;;;2.44;78.68;101257.99;436716;121;923562;-78
2022/12/09 14:29:44;;;;;;;12.17;11.04;;;;;;;2.43;78.79;101250.91;444496;119;922467;-78
2022/12/09 14:30:51;;;;;;;13.36;12.17;;;;;;;2.42;78.73;101260.00;436739;121;922502;-79
2022/12/09 14:32:01;;;;;;;13.81;12.55;;;;;;;2.39;78.63;101253.05;436713;121;922543;-76
2022/12/09 14:33:20;;;;;;;13.42;11.82;;;;;;;2.38;78.77;101258.57;444568;119;922606;-78
2022/12/09 14:34:36;;;;;;;13.26;12.14;;;;;;;2.37;78.72;101268.48;435905;121;923058;-79
2022/12/09 14:35:43;;;;;;;13.31;12.08;;;;;;;2.35;78.63;101262.42;444553;119;922628;-79
2022/12/09 14:36:53;;;;;;;13.22;12.04;;;;;;;2.34;78.69;101268.78;444496;119;922700;-78
2022/12/09 14:38:23;;;;;;;17.08;14.27;;;;;;;2.33;78.79;101263.55;444377;119;922771;-79
2022/12/09 14:39:30;;;;;;;16.48;14.77;;;;;;;2.34;78.84;101259.86;444395;119;922466;-78
2022/12/09 14:40:40;;;;;;;15.91;14.40;;;;;;;2.32;78.87;101254.62;444416;119;922938;-77
2022/12/09 14:41:49;;;;;;;14.49;13.20;;;;;;;2.34;78.88;101262.55;443433;119;922498;-75
2022/12/09 14:43:02;;;;;;;17.52;15.22;;;;;;;2.34;78.95;101268.78;443454;119;923036;-78
2022/12/09 14:44:43;;;;;;;16.59;15.11;;;;;;;2.36;78.80;101282.11;444401;119;922616;-79
2022/12/09 14:46:02;;;;;;;16.54;14.17;;;;;;;2.37;78.75;101283.81;444389;119;922948;-78
2022/12/09 14:47:09;;;;;;;17.09;15.26;;;;;;;2.36;78.83;101274.88;444379;119;922552;-76
2022/12/09 14:48:18;;;;;;;17.68;15.96;;;;;;;2.36;78.75;101282.95;430091;119;922810;-78
2022/12/09 14:49:27;;;;;;;18.93;16.46;;;;;;;2.37;78.73;101284.63;436018;121;922668;-78
2022/12/09 14:50:31;;;;;;;17.28;15.67;;;;;;;2.37;78.72;101271.17;444393;119;923030;-78
2022/12/09 14:51:49;;;;;;;21.56;18.52;;;;;;;2.39;78.80;101277.27;437064;121;922672;-77
2022/12/09 14:53:01;;;;;;;32.43;23.08;;;;;;;2.41;78.80;101277.14;444419;119;923042;-77
2022/12/09 14:54:14;;;;;;;31.40;23.60;;;;;;;2.43;78.75;101277.81;444438;119;922507;-77
2022/12/09 14:55:17;;;;;;;26.46;21.88;;;;;;;2.44;78.69;101276.83;444416;119;922506;-78
2022/12/09 14:56:24;;;;;;;29.05;22.23;;;;;;;2.45;78.65;101273.15;444533;119;922521;-78
2022/12/09 14:57:31;;;;;;;23.87;21.20;;;;;;;2.47;78.75;101269.34;444404;119;922951;-77
2022/12/09 14:58:34;;;;;;;27.47;19.40;;;;;;;2.50;78.73;101273.56;444373;118;922562;-78
2022/12/09 14:59:41;;;;;;;21.04;18.67;;;;;;;2.53;78.66;101273.28;452199;117;922505;-78
2022/12/09 15:00:44;;;;;;;19.27;17.32;;;;;;;2.55;78.77;101256.97;451529;117;922615;-78
2022/12/09 15:01:54;;;;;;;18.44;15.74;;;;;;;2.56;78.74;101262.21;452150;117;922589;-78
2022/12/09 15:02:58;;;;;;;19.35;15.63;;;;;;;2.59;78.56;101256.55;451924;117;922536;-78
2022/12/09 15:04:04;;;;;;;16.61;14.95;;;;;;;2.62;78.75;101253.55;451932;117;922708;-79
2022/12/09 15:05:11;;;;;;;17.51;15.69;;;;;;;2.65;78.66;101260.47;452019;117;922484;-78
2022/12/09 15:06:18;;;;;;;17.01;15.19;;;;;;;2.67;78.64;101247.72;451376;117;930477;-78
2022/12/09 15:07:25;;;;;;;17.73;15.58;;;;;;;2.70;78.62;101253.64;451914;117;922924;-79
2022/12/09 15:08:31;;;;;;;19.22;16.06;;;;;;;2.72;78.62;101251.66;452004;117;922595;-78
2022/12/09 15:09:34;;;;;;;17.28;15.61;;;;;;;2.75;78.58;101243.31;452012;117;922964;-78
2022/12/09 15:10:37;;;;;;;16.94;14.83;;;;;;;2.77;78.55;101245.83;452234;117;922514;-79
2022/12/09 15:11:40;;;;;;;16.57;14.12;;;;;;;2.80;78.54;101246.41;452230;117;922596;-78
2022/12/09 15:12:47;;;;;;;16.06;14.53;;;;;;;2.82;78.55;101239.00;452157;117;922526;-77
2022/12/09 15:13:53;;;;;;;20.19;14.42;;;;;;;2.85;78.39;101241.42;451993;117;922525;-78
2022/12/09 15:14:59;;;;;;;15.71;13.67;;;;;;;2.87;78.26;101239.41;452010;117;922538;-78
2022/12/09 15:16:15;;;;;;;19.23;14.63;;;;;;;2.88;78.25;101241.10;451917;117;922516;-77
2022/12/09 15:17:33;;;;;;;17.01;14.91;;;;;;;2.90;78.07;101239.12;452004;117;922703;-77
2022/12/09 15:18:38;;;;;;;17.18;15.37;;;;;;;2.91;77.85;101242.67;424359;125;922739;-77
2022/12/09 15:19:41;;;;;;;17.67;15.64;;;;;;;2.90;77.82;101244.51;436242;117;922695;-76
2022/12/09 15:20:52;;;;;;;16.73;15.02;;;;;;;2.91;77.74;101250.75;449387;117;922709;-77
2022/12/09 15:21:57;;;;;;;17.24;15.52;;;;;;;2.92;77.77;101247.06;451938;117;923123;-77
2022/12/09 15:23:06;;;;;;;16.35;14.45;;;;;;;2.93;77.53;101244.20;452105;117;922609;-77
2022/12/09 15:24:12;;;;;;;15.57;13.89;;;;;;;2.94;77.61;101242.35;452037;117;922917;-79
2022/12/09 15:25:18;;;;;;;14.54;12.69;;;;;;;2.96;77.45;101236.83;452023;117;922557;-79
2022/12/09 15:26:28;;;;;;;13.82;12.51;;;;;;;2.97;77.43;101239.38;451049;117;922525;-77
2022/12/09 15:27:31;;;;;;;17.05;12.56;;;;;;;2.99;77.37;101236.52;451974;117;922541;-77
2022/12/09 15:28:36;;;;;;;15.38;13.51;;;;;;;3.00;77.33;101243.59;452111;117;922575;-78
2022/12/09 15:29:39;;;;;;;15.44;12.76;;;;;;;3.01;77.30;101239.91;452031;117;922805;-81
2022/12/09 15:30:43;;;;;;;16.20;13.58;;;;;;;3.03;77.34;101237.93;452103;117;930275;-77
2022/12/09 15:31:48;;;;;;;14.33;12.86;;;;;;;3.04;77.18;101226.13;452084;117;922793;-78
2022/12/09 15:32:52;;;;;;;16.33;14.71;;;;;;;3.05;77.27;101225.14;451944;117;930445;-78
2022/12/09 15:34:00;;;;;;;15.95;14.32;;;;;;;3.08;77.18;101216.77;452210;117;922603;-78
2022/12/09 15:35:16;;;;;;;17.46;14.14;;;;;;;3.10;77.14;101223.69;452012;117;922660;-78
2022/12/09 15:36:29;;;;;;;17.50;13.76;;;;;;;3.12;77.07;101221.70;452073;117;923096;-79
2022/12/09 15:37:32;;;;;;;15.86;13.93;;;;;;;3.13;76.92;101220.70;451969;117;922777;-78
2022/12/09 15:38:39;;;;;;;17.20;13.38;;;;;;;3.15;76.92;101217.84;452194;117;922833;-79
2022/12/09 15:39:53;;;;;;;17.18;14.21;;;;;;;3.16;76.98;101222.23;452002;117;922656;-77
2022/12/09 15:42:26;;;;;;;15.52;12.93;;;;;;;3.20;76.79;101213.69;451978;117;922739;-79
2022/12/09 15:43:30;;;;;;;15.46;13.68;;;;;;;3.20;76.79;101213.69;452028;117;922518;-77
2022/12/09 15:44:40;;;;;;;17.62;13.64;;;;;;;3.22;76.82;101216.25;451969;117;922528;-78
2022/12/09 15:45:44;;;;;;;18.54;14.32;;;;;;;3.24;76.96;101215.11;451968;117;923012;-78
2022/12/09 15:46:50;;;;;;;17.09;15.32;;;;;;;3.26;76.92;101214.93;452073;117;922584;-79
2022/12/09 15:48:06;;;;;;;19.16;15.54;;;;;;;3.27;76.79;101219.33;451964;117;924066;-76
2022/12/09 15:49:12;;;;;;;16.51;13.93;;;;;;;3.28;76.73;101211.10;451949;117;922880;-79
2022/12/09 15:50:28;;;;;;;18.34;14.07;;;;;;;3.29;76.56;101212.80;451972;117;922587;-79
2022/12/09 15:51:34;;;;;;;15.81;13.42;;;;;;;3.31;76.53;101212.63;451977;117;922450;-77
2022/12/09 15:52:40;;;;;;;18.80;13.13;;;;;;;3.32;76.59;101212.48;451947;117;922530;-78
2022/12/09 15:53:54;;;;;;;14.22;12.54;;;;;;;3.34;76.62;101212.34;452002;117;922889;-76
2022/12/09 15:54:59;;;;;;;17.24;13.52;;;;;;;3.35;76.52;101216.73;451979;117;923063;-78
2022/12/09 15:56:12;;;;;;;16.97;13.67;;;;;;;3.35;76.53;101206.80;451988;117;922621;-79
2022/12/09 15:57:18;;;;;;;15.26;12.84;;;;;;;3.38;76.46;101216.41;452021;117;922753;-78
2022/12/09 15:58:26;;;;;;;19.27;13.84;;;;;;;3.39;76.54;101210.03;452031;117;922506;-78
2022/12/09 15:59:41;;;;;;;16.63;12.97;;;;;;;3.41;76.25;101216.13;451344;117;922781;-79
2022/12/09 16:00:47;;;;;;;14.64;11.82;;;;;;;3.41;76.25;101216.13;452043;117;922707;-77
2022/12/09 16:01:53;;;;;;;14.55;13.19;;;;;;;3.40;76.16;101218.97;452012;117;923012;-78
2022/12/09 16:02:57;;;;;;;17.92;12.74;;;;;;;3.41;76.18;101221.52;452006;117;922559;-78
2022/12/09 16:04:02;;;;;;;17.16;12.76;;;;;;;3.43;76.14;101218.64;452105;117;922538;-78
2022/12/09 16:05:08;;;;;;;15.79;12.62;;;;;;;3.43;76.12;101219.49;452014;117;922567;-78
2022/12/09 16:06:12;;;;;;;14.02;12.58;;;;;;;3.45;76.18;101220.20;451985;117;922487;-77
2022/12/09 16:07:18;;;;;;;13.86;12.58;;;;;;;3.45;76.18;101220.20;452169;117;922601;-78
2022/12/09 16:08:22;;;;;;;14.11;12.71;;;;;;;3.46;75.89;101221.91;451999;117;922590;-78
2022/12/09 16:09:25;;;;;;;15.75;11.71;;;;;;;3.47;75.86;101217.36;452107;117;923511;-78
2022/12/09 16:10:29;;;;;;;12.81;11.52;;;;;;;3.47;75.89;101218.21;452136;117;922599;-78
2022/12/09 16:11:38;;;;;;;14.60;11.89;;;;;;;3.49;75.81;101223.42;452121;117;922492;-78
2022/12/09 16:12:43;;;;;;;11.94;10.36;;;;;;;3.47;75.62;101215.52;451959;117;922659;-79
2022/12/09 16:14:00;;;;;;;11.58;10.55;;;;;;;3.48;75.69;101227.12;452103;117;922637;-78
2022/12/09 16:15:05;;;;;;;14.65;10.83;;;;;;;3.47;75.61;101226.30;451985;117;922895;-77
2022/12/09 16:16:25;;;;;;;13.48;10.68;;;;;;;3.49;75.59;101221.58;452023;117;922641;-78
2022/12/09 16:17:31;;;;;;;12.19;10.95;;;;;;;3.49;75.56;101216.19;451915;117;922468;-77